Time;durP1;ratioP1;P1;durP2;ratioP2;P2;SDS_P1;SDS_P2;PMS_P1;PMS_P2;Temp;Humidity;BMP_temperature;BMP_pressure;BME280_temperature;BME280_humidity;BME280_pressure;Samples;Min_cycle;Max_cycle;Signal;HPM_P1;HPM_P2
2023/02/08 00:01:18;;;;;;;;;;;1.50;96.40;;;;;;6215038;23;19971;-78
2023/02/08 00:03:44;;;;;;;;;;;1.50;96.20;;;;;;6213735;23;19903;-77
2023/02/08 00:06:10;;;;;;;;;;;1.40;96.70;;;;;;6215297;23;19970;-77
2023/02/08 00:08:37;;;;;;;;;;;1.40;96.70;;;;;;6213708;23;19900;-78
2023/02/08 00:11:02;;;;;;;;;;;1.30;96.70;;;;;;6215041;23;19912;-78
2023/02/08 00:13:28;;;;;;;;;;;1.30;97.90;;;;;;6213788;23;19906;-77
2023/02/08 00:15:54;;;;;;;;;;;1.20;97.60;;;;;;6213310;23;19904;-77
2023/02/08 00:18:20;;;;;;;;;;;1.10;97.80;;;;;;6215433;23;19907;-77
2023/02/08 00:20:46;;;;;;;;;;;1.00;98.40;;;;;;6215038;23;19910;-77
2023/02/08 00:23:12;;;;;;;;;;;1.00;98.40;;;;;;6215200;23;20209;-78
2023/02/08 00:25:38;;;;;;;;;;;1.00;98.80;;;;;;6215586;23;19900;-77
2023/02/08 00:28:03;;;;;;;;;;;1.00;99.30;;;;;;6215469;23;20190;-77
2023/02/08 00:30:29;;;;;;;;;;;1.00;99.40;;;;;;6214982;23;19900;-78
2023/02/08 00:32:55;;;;;;;;;;;1.10;99.70;;;;;;6213421;23;19907;-77
2023/02/08 00:35:20;;;;;;;;;;;1.10;99.60;;;;;;6213498;23;20259;-78
2023/02/08 00:37:46;;;;;;;;;;;1.10;99.70;;;;;;6213495;23;20287;-77
2023/02/08 00:40:11;;;;;;;;;;;1.10;99.60;;;;;;6213110;23;19982;-78
2023/02/08 00:42:37;;;;;;;;;;;1.10;99.90;;;;;;6215127;23;20328;-77
2023/02/08 00:45:03;;;;;;;;;;;1.10;99.90;;;;;;6214921;23;19925;-77
2023/02/08 00:47:28;;;;;;;;;;;1.00;99.90;;;;;;6213231;23;19900;-77
2023/02/08 00:49:54;;;;;;;;;;;1.00;99.90;;;;;;6214502;23;19908;-78
2023/02/08 00:52:20;;;;;;;;;;;1.00;99.90;;;;;;6214936;23;20308;-77
2023/02/08 00:54:46;;;;;;;;;;;1.00;99.90;;;;;;6214826;23;20279;-78
2023/02/08 00:57:12;;;;;;;;;;;0.90;99.90;;;;;;6214766;23;19900;-78
2023/02/08 00:59:37;;;;;;;;;;;1.00;99.90;;;;;;6212939;23;19908;-77
2023/02/08 01:02:03;;;;;;;;;;;1.00;99.90;;;;;;6212792;23;19900;-78
2023/02/08 01:04:28;;;;;;;;;;;1.00;99.90;;;;;;6213109;23;19900;-77
2023/02/08 01:06:54;;;;;;;;;;;1.00;99.90;;;;;;6214493;23;19904;-77
2023/02/08 01:09:20;;;;;;;;;;;0.90;99.90;;;;;;6214730;23;19900;-78
2023/02/08 01:11:45;;;;;;;;;;;1.00;99.90;;;;;;6214421;23;19911;-78
2023/02/08 01:14:11;;;;;;;;;;;1.00;99.90;;;;;;6214430;23;19951;-78
2023/02/08 01:16:36;;;;;;;;;;;1.00;99.90;;;;;;6212876;23;20336;-78
2023/02/08 01:19:03;;;;;;;;;;;1.10;99.90;;;;;;6214328;23;19911;-78
2023/02/08 01:21:30;;;;;;;;;;;1.10;99.90;;;;;;6212940;23;19900;-78
2023/02/08 01:23:56;;;;;;;;;;;1.10;99.90;;;;;;6214397;23;19899;-78
2023/02/08 01:26:22;;;;;;;;;;;1.00;99.90;;;;;;6214312;23;19900;-78
2023/02/08 01:28:48;;;;;;;;;;;1.00;99.90;;;;;;6214180;23;20214;-78
2023/02/08 01:31:20;;;;;;;;;;;1.00;99.90;;;;;;6213973;23;19910;-77
2023/02/08 01:33:46;;;;;;;;;;;1.00;99.90;;;;;;6212788;23;19900;-77
2023/02/08 01:36:12;;;;;;;;;;;0.90;99.90;;;;;;6214539;23;19907;-77
2023/02/08 01:38:37;;;;;;;;;;;0.90;99.90;;;;;;6212501;23;19935;-78
2023/02/08 01:41:04;;;;;;;;;;;1.00;99.90;;;;;;6214228;23;19990;-78
2023/02/08 01:43:34;;;;;;;;;;;0.90;99.90;;;;;;6214389;23;19906;-78
2023/02/08 01:45:59;;;;;;;;;;;1.00;99.90;;;;;;6212680;23;19915;-78
2023/02/08 01:48:25;;;;;;;;;;;0.90;99.90;;;;;;6212451;23;19900;-78
2023/02/08 01:51:11;;;;;;;;;;;0.80;99.90;;;;;;6212642;23;20351;-78
2023/02/08 01:53:37;;;;;;;;;;;0.90;99.90;;;;;;6214106;23;19907;-78
2023/02/08 01:56:05;;;;;;;;;;;0.80;99.90;;;;;;6214274;23;19900;-78
2023/02/08 01:58:33;;;;;;;;;;;0.80;99.90;;;;;;6214189;23;20231;-78
2023/02/08 02:00:59;;;;;;;;;;;0.80;99.90;;;;;;6212316;23;19907;-78
2023/02/08 02:03:25;;;;;;;;;;;0.80;99.90;;;;;;6212686;23;19900;-78
2023/02/08 02:05:53;;;;;;;;;;;0.70;99.90;;;;;;6212578;23;19907;-78
2023/02/08 02:08:18;;;;;;;;;;;0.60;99.90;;;;;;6214012;23;19935;-78
2023/02/08 02:10:46;;;;;;;;;;;0.60;99.90;;;;;;6213900;23;19912;-78
2023/02/08 02:13:13;;;;;;;;;;;0.70;99.90;;;;;;6212475;23;19978;-78
2023/02/08 02:15:40;;;;;;;;;;;0.70;99.90;;;;;;6214011;23;19907;-78
2023/02/08 02:18:06;;;;;;;;;;;0.70;99.90;;;;;;6212672;23;20362;-78
2023/02/08 02:20:51;;;;;;;;;;;0.80;99.90;;;;;;6212310;23;19936;-78
2023/02/08 02:23:35;;;;;;;;;;;0.80;99.90;;;;;;6212518;23;19979;-78
2023/02/08 02:26:07;;;;;;;;;;;0.60;99.90;;;;;;6212431;23;19906;-78
2023/02/08 02:28:42;;;;;;;;;;;0.60;99.90;;;;;;6212444;23;19907;-78
2023/02/08 02:31:22;;;;;;;;;;;0.60;99.90;;;;;;6212216;23;19927;-78
2023/02/08 02:33:48;;;;;;;;;;;0.60;99.90;;;;;;6212301;23;19907;-78
2023/02/08 02:36:17;;;;;;;;;;;0.60;99.90;;;;;;6212401;23;19904;-78
2023/02/08 02:38:43;;;;;;;;;;;0.60;99.90;;;;;;6212205;23;19900;-78
2023/02/08 02:44:13;;;;;;;;;;;0.50;99.90;;;;;;6216062;23;20332;-78
2023/02/08 02:46:40;;;;;;;;;;;0.50;99.90;;;;;;6214000;23;19900;-78
2023/02/08 02:49:15;;;;;;;;;;;0.50;99.90;;;;;;6216072;23;19907;-78
2023/02/08 02:51:59;;;;;;;;;;;0.50;99.90;;;;;;6214270;23;19951;-78
2023/02/08 02:54:28;;;;;;;;;;;0.50;99.90;;;;;;6214321;23;19906;-78
2023/02/08 02:56:59;;;;;;;;;;;0.50;99.90;;;;;;6214317;23;19950;-78
2023/02/08 02:59:26;;;;;;;;;;;0.40;99.90;;;;;;6214129;23;20256;-78
2023/02/08 03:01:53;;;;;;;;;;;0.40;99.90;;;;;;6215553;23;19900;-78
2023/02/08 03:04:38;;;;;;;;;;;0.30;99.90;;;;;;6215902;23;19900;-78
2023/02/08 03:07:07;;;;;;;;;;;0.30;99.90;;;;;;6213731;23;19950;-78
2023/02/08 03:09:44;;;;;;;;;;;0.30;99.90;;;;;;6215665;23;19906;-78
2023/02/08 03:12:30;;;;;;;;;;;0.30;99.90;;;;;;6215483;23;19911;-78
2023/02/08 03:15:08;;;;;;;;;;;0.30;99.90;;;;;;6172947;23;19927;-78
2023/02/08 03:17:41;;;;;;;;;;;0.40;99.90;;;;;;6213852;23;19908;-79
2023/02/08 03:20:09;;;;;;;;;;;0.40;99.90;;;;;;6215427;23;19908;-78
2023/02/08 03:22:40;;;;;;;;;;;0.40;99.90;;;;;;6215738;23;20431;-78
2023/02/08 03:25:13;;;;;;;;;;;0.40;99.90;;;;;;6213937;23;19946;-78
2023/02/08 03:27:38;;;;;;;;;;;0.50;99.90;;;;;;6213828;23;19927;-78
2023/02/08 03:30:21;;;;;;;;;;;0.50;99.90;;;;;;6213994;23;20316;-78
2023/02/08 03:32:49;;;;;;;;;;;0.40;99.90;;;;;;6213717;23;20305;-79
2023/02/08 03:35:18;;;;;;;;;;;0.50;99.90;;;;;;6213791;23;19907;-78
2023/02/08 03:37:52;;;;;;;;;;;0.50;99.90;;;;;;6213667;23;19914;-78
2023/02/08 03:40:23;;;;;;;;;;;0.30;99.90;;;;;;6213532;23;19904;-78
2023/02/08 03:42:49;;;;;;;;;;;0.30;99.90;;;;;;6213902;23;19904;-78
2023/02/08 03:45:17;;;;;;;;;;;0.30;99.90;;;;;;6215571;23;20045;-78
2023/02/08 03:47:44;;;;;;;;;;;0.30;99.90;;;;;;6215069;23;20316;-79
2023/02/08 03:50:11;;;;;;;;;;;0.30;99.90;;;;;;6213752;23;19900;-78
2023/02/08 03:52:37;;;;;;;;;;;0.30;99.90;;;;;;6215174;23;19906;-79
2023/02/08 03:55:09;;;;;;;;;;;0.30;99.90;;;;;;6213774;23;19935;-79
2023/02/08 03:57:37;;;;;;;;;;;0.30;99.90;;;;;;6213597;23;19900;-79
2023/02/08 04:00:05;;;;;;;;;;;0.20;99.90;;;;;;6213530;23;20271;-79
2023/02/08 04:02:33;;;;;;;;;;;0.30;99.90;;;;;;6213447;23;20231;-79
2023/02/08 04:04:59;;;;;;;;;;;0.30;99.90;;;;;;6215195;23;19971;-78
2023/02/08 04:07:25;;;;;;;;;;;0.30;99.90;;;;;;6213582;23;19931;-79
2023/02/08 04:09:51;;;;;;;;;;;0.20;99.90;;;;;;6213652;23;20331;-78
2023/02/08 04:12:16;;;;;;;;;;;0.10;99.90;;;;;;6213281;23;19911;-78
2023/02/08 04:14:42;;;;;;;;;;;0.20;99.90;;;;;;6213629;23;19900;-79
2023/02/08 04:17:07;;;;;;;;;;;0.20;99.90;;;;;;6213205;23;19907;-78
2023/02/08 04:19:33;;;;;;;;;;;0.20;99.90;;;;;;6214952;23;19919;-78
2023/02/08 04:21:58;;;;;;;;;;;0.20;99.90;;;;;;6213559;23;19986;-79
2023/02/08 04:24:24;;;;;;;;;;;0.20;99.90;;;;;;6214840;23;20299;-79
2023/02/08 04:26:49;;;;;;;;;;;0.20;99.90;;;;;;6213496;23;19962;-78
2023/02/08 04:29:15;;;;;;;;;;;0.20;99.90;;;;;;6213163;23;20224;-79
2023/02/08 04:31:40;;;;;;;;;;;0.20;99.90;;;;;;6213399;23;19900;-79
2023/02/08 04:34:06;;;;;;;;;;;0.10;99.90;;;;;;6213173;23;19900;-79
2023/02/08 04:36:32;;;;;;;;;;;0.10;99.90;;;;;;6213530;23;20316;-78
2023/02/08 04:38:57;;;;;;;;;;;-0.10;99.90;;;;;;6213188;23;19939;-79
2023/02/08 04:41:23;;;;;;;;;;;-0.10;99.90;;;;;;6212915;23;19900;-79
2023/02/08 04:43:48;;;;;;;;;;;-0.10;99.90;;;;;;6214930;23;19900;-79
2023/02/08 04:46:14;;;;;;;;;;;0.00;99.90;;;;;;6212951;23;19945;-79
2023/02/08 04:48:39;;;;;;;;;;;0.00;99.90;;;;;;6213339;23;19931;-79
2023/02/08 04:51:05;;;;;;;;;;;-0.10;99.90;;;;;;6213100;23;20305;-78
2023/02/08 04:53:30;;;;;;;;;;;-0.20;99.90;;;;;;6213226;23;19997;-79
2023/02/08 04:55:56;;;;;;;;;;;-0.20;99.90;;;;;;6213095;23;19906;-78
2023/02/08 04:58:22;;;;;;;;;;;-0.20;99.90;;;;;;6214633;23;19978;-79
2023/02/08 05:00:47;;;;;;;;;;;-0.10;99.90;;;;;;6212921;23;19904;-79
2023/02/08 05:03:13;;;;;;;;;;;-0.10;99.90;;;;;;6213155;23;20046;-79
2023/02/08 05:05:39;;;;;;;;;;;-0.10;99.90;;;;;;6212768;23;19900;-78
2023/02/08 05:08:05;;;;;;;;;;;0.00;99.90;;;;;;6213136;23;19907;-78
2023/02/08 05:10:30;;;;;;;;;;;0.00;99.90;;;;;;6212528;23;19986;-78
2023/02/08 05:12:56;;;;;;;;;;;-0.10;99.90;;;;;;6213197;23;20317;-78
2023/02/08 05:15:21;;;;;;;;;;;-0.10;99.90;;;;;;6214545;23;19911;-79
2023/02/08 05:17:47;;;;;;;;;;;-0.10;99.90;;;;;;6214394;23;19900;-79
2023/02/08 05:20:13;;;;;;;;;;;-0.10;99.90;;;;;;6214461;23;20320;-79
2023/02/08 05:22:38;;;;;;;;;;;-0.10;99.90;;;;;;6212843;23;20335;-79
2023/02/08 05:25:04;;;;;;;;;;;-0.10;99.90;;;;;;6212708;23;19900;-78
2023/02/08 05:27:30;;;;;;;;;;;-0.20;99.90;;;;;;6212704;23;19910;-79
2023/02/08 05:29:55;;;;;;;;;;;-0.10;99.90;;;;;;6212946;23;19900;-78
2023/02/08 05:32:21;;;;;;;;;;;-0.20;99.90;;;;;;6212304;23;19900;-79
2023/02/08 05:34:46;;;;;;;;;;;-0.10;99.90;;;;;;6212661;23;19914;-79
2023/02/08 05:37:13;;;;;;;;;;;-0.10;99.90;;;;;;6214482;23;20312;-79
2023/02/08 05:39:39;;;;;;;;;;;-0.20;99.90;;;;;;6212377;23;19913;-78
2023/02/08 05:42:05;;;;;;;;;;;-0.30;99.90;;;;;;6212819;23;19900;-78
2023/02/08 05:44:30;;;;;;;;;;;-0.20;99.90;;;;;;6214237;23;19950;-79
2023/02/08 05:46:56;;;;;;;;;;;-0.20;99.90;;;;;;6212694;23;19924;-79
2023/02/08 05:49:21;;;;;;;;;;;-0.20;99.90;;;;;;6214119;23;20383;-79
2023/02/08 05:51:49;;;;;;;;;;;-0.20;99.90;;;;;;6212332;23;19927;-79
2023/02/08 05:54:15;;;;;;;;;;;-0.20;99.90;;;;;;6212635;23;19904;-79
2023/02/08 05:56:40;;;;;;;;;;;-0.10;99.90;;;;;;6212707;23;19900;-78
2023/02/08 05:59:06;;;;;;;;;;;-0.10;99.90;;;;;;6212395;23;19904;-78
2023/02/08 06:01:31;;;;;;;;;;;0.00;99.90;;;;;;6212339;23;19899;-78
2023/02/08 06:03:57;;;;;;;;;;;0.00;99.90;;;;;;6212692;23;19966;-78
2023/02/08 06:06:23;;;;;;;;;;;0.00;99.90;;;;;;6211423;23;19900;-78
2023/02/08 06:08:48;;;;;;;;;;;0.00;99.90;;;;;;6211079;23;19953;-78
2023/02/08 06:11:14;;;;;;;;;;;0.00;99.90;;;;;;6212351;23;20473;-78
2023/02/08 06:13:39;;;;;;;;;;;0.00;99.90;;;;;;6211277;23;19931;-78
2023/02/08 06:16:05;;;;;;;;;;;0.00;99.90;;;;;;6211013;23;20027;-78
2023/02/08 06:18:30;;;;;;;;;;;0.00;99.90;;;;;;6211278;23;19985;-79
2023/02/08 06:20:56;;;;;;;;;;;0.00;99.90;;;;;;6212476;23;19915;-78
2023/02/08 06:23:22;;;;;;;;;;;-0.10;99.90;;;;;;6212693;23;19904;-78
2023/02/08 06:25:48;;;;;;;;;;;-0.10;99.90;;;;;;6212723;23;20293;-79
2023/02/08 06:28:13;;;;;;;;;;;0.00;99.90;;;;;;6212822;23;20015;-78
2023/02/08 06:30:40;;;;;;;;;;;0.00;99.90;;;;;;6212525;23;19903;-78
2023/02/08 06:33:06;;;;;;;;;;;0.00;99.90;;;;;;6212639;23;19962;-78
2023/02/08 06:35:31;;;;;;;;;;;0.00;99.90;;;;;;6212634;23;19943;-78
2023/02/08 06:37:57;;;;;;;;;;;0.00;99.90;;;;;;6212569;23;19903;-78
2023/02/08 06:40:23;;;;;;;;;;;0.00;99.90;;;;;;6212489;23;20316;-78
2023/02/08 06:42:49;;;;;;;;;;;0.00;99.90;;;;;;6212114;23;20300;-78
2023/02/08 06:45:15;;;;;;;;;;;0.00;99.90;;;;;;6212286;23;19906;-78
2023/02/08 06:47:40;;;;;;;;;;;0.00;99.90;;;;;;6212162;23;19900;-78
2023/02/08 06:50:06;;;;;;;;;;;0.00;99.90;;;;;;6213803;23;19911;-79
2023/02/08 06:52:31;;;;;;;;;;;0.00;99.90;;;;;;6213853;23;19900;-78
2023/02/08 06:54:57;;;;;;;;;;;0.00;99.90;;;;;;6211889;23;19906;-78
2023/02/08 06:57:22;;;;;;;;;;;0.00;99.90;;;;;;6211031;23;19906;-78
2023/02/08 06:59:48;;;;;;;;;;;-0.10;99.90;;;;;;6213380;23;19986;-78
2023/02/08 07:02:15;;;;;;;;;;;-0.10;99.90;;;;;;6211870;23;19900;-78
2023/02/08 07:04:40;;;;;;;;;;;0.00;99.90;;;;;;6212379;23;19900;-78
2023/02/08 07:07:06;;;;;;;;;;;0.00;99.90;;;;;;6210801;23;19999;-78
2023/02/08 07:09:32;;;;;;;;;;;0.00;99.90;;;;;;6212964;23;19899;-79
2023/02/08 07:11:58;;;;;;;;;;;0.00;99.90;;;;;;6213310;23;19911;-79
2023/02/08 07:14:24;;;;;;;;;;;0.00;99.90;;;;;;6215143;23;20296;-79
2023/02/08 07:16:50;;;;;;;;;;;0.00;99.90;;;;;;6214977;23;19900;-79
2023/02/08 07:19:16;;;;;;;;;;;0.00;99.90;;;;;;6213442;23;19987;-79
2023/02/08 07:21:42;;;;;;;;;;;0.00;99.90;;;;;;6213434;23;19900;-78
2023/02/08 07:24:07;;;;;;;;;;;0.10;99.90;;;;;;6215430;23;20349;-78
2023/02/08 07:26:33;;;;;;;;;;;0.10;99.90;;;;;;6214076;23;19900;-78
2023/02/08 07:28:58;;;;;;;;;;;0.10;99.90;;;;;;6215540;23;19906;-78
2023/02/08 07:31:24;;;;;;;;;;;0.10;99.90;;;;;;6215516;23;19903;-78
2023/02/08 07:33:49;;;;;;;;;;;0.20;99.90;;;;;;6217117;23;19900;-79
2023/02/08 07:36:15;;;;;;;;;;;0.20;99.90;;;;;;6215582;23;19982;-78
2023/02/08 07:38:41;;;;;;;;;;;0.20;99.90;;;;;;6216906;23;19907;-78
2023/02/08 07:41:08;;;;;;;;;;;0.20;99.90;;;;;;6215258;23;19935;-78
2023/02/08 07:43:35;;;;;;;;;;;0.30;99.90;;;;;;6215414;23;19903;-78
2023/02/08 07:46:08;;;;;;;;;;;0.40;99.90;;;;;;6215448;23;20033;-78
2023/02/08 07:48:34;;;;;;;;;;;0.30;99.90;;;;;;6215536;23;19900;-78
2023/02/08 07:50:59;;;;;;;;;;;0.30;99.90;;;;;;6216930;23;19899;-78
2023/02/08 07:53:25;;;;;;;;;;;0.30;99.90;;;;;;6215293;23;19954;-78
2023/02/08 07:55:51;;;;;;;;;;;0.40;99.90;;;;;;6215423;23;19900;-78
2023/02/08 07:58:16;;;;;;;;;;;0.40;99.90;;;;;;6215473;23;20004;-79
2023/02/08 08:00:42;;;;;;;;;;;0.50;99.90;;;;;;6216880;23;19991;-78
2023/02/08 08:03:07;;;;;;;;;;;0.50;99.90;;;;;;6216770;23;19932;-78
2023/02/08 08:05:33;;;;;;;;;;;0.60;99.90;;;;;;6216985;23;19906;-78
2023/02/08 08:07:58;;;;;;;;;;;0.60;99.90;;;;;;6215297;23;19896;-78
2023/02/08 08:10:24;;;;;;;;;;;0.70;99.90;;;;;;6216631;23;20213;-78
2023/02/08 08:12:49;;;;;;;;;;;0.80;99.90;;;;;;6215303;23;20377;-78
2023/02/08 08:15:15;;;;;;;;;;;0.80;99.90;;;;;;6214224;23;19940;-78
2023/02/08 08:17:41;;;;;;;;;;;0.90;99.90;;;;;;6211896;23;19943;-78
2023/02/08 08:20:09;;;;;;;;;;;0.90;99.90;;;;;;6213444;23;19904;-80
2023/02/08 08:22:35;;;;;;;;;;;1.00;99.90;;;;;;6213001;23;19971;-79
2023/02/08 08:25:00;;;;;;;;;;;1.00;99.90;;;;;;6213265;23;20337;-80
2023/02/08 08:27:26;;;;;;;;;;;1.10;99.90;;;;;;6213908;23;20320;-80
2023/02/08 08:29:52;;;;;;;;;;;1.20;99.90;;;;;;6213561;23;19904;-80
2023/02/08 08:32:17;;;;;;;;;;;1.30;99.90;;;;;;6212011;23;19907;-80
2023/02/08 08:34:43;;;;;;;;;;;1.40;99.90;;;;;;6212669;23;20583;-80
2023/02/08 08:37:08;;;;;;;;;;;1.40;99.90;;;;;;6212940;23;19907;-80
2023/02/08 08:39:35;;;;;;;;;;;1.50;99.90;;;;;;6210314;23;19915;-80
2023/02/08 08:42:02;;;;;;;;;;;1.60;99.90;;;;;;6211730;23;19904;-80
2023/02/08 08:44:28;;;;;;;;;;;1.60;99.90;;;;;;6212173;23;20331;-80
2023/02/08 08:46:55;;;;;;;;;;;1.70;99.90;;;;;;6210720;23;19903;-80
2023/02/08 08:49:21;;;;;;;;;;;1.80;99.90;;;;;;6209883;23;20272;-80
2023/02/08 08:51:47;;;;;;;;;;;1.80;99.90;;;;;;6210391;23;19906;-80
2023/02/08 08:54:12;;;;;;;;;;;1.80;99.90;;;;;;6212426;23;19945;-80
2023/02/08 08:56:38;;;;;;;;;;;1.90;99.90;;;;;;6210296;23;19900;-80
2023/02/08 08:59:04;;;;;;;;;;;2.00;99.90;;;;;;6210788;23;19904;-80
2023/02/08 09:01:29;;;;;;;;;;;2.00;99.30;;;;;;6213432;23;19907;-84
2023/02/08 09:03:55;;;;;;;;;;;2.10;98.20;;;;;;6212626;23;19910;-83
2023/02/08 09:06:20;;;;;;;;;;;2.20;97.80;;;;;;6212291;23;19931;-84
2023/02/08 09:08:46;;;;;;;;;;;2.20;96.50;;;;;;6211283;23;19923;-83
2023/02/08 09:11:13;;;;;;;;;;;2.20;97.60;;;;;;6213551;23;20275;-83
2023/02/08 09:13:39;;;;;;;;;;;2.30;98.10;;;;;;6212013;23;20473;-83
2023/02/08 09:16:15;;;;;;;;;;;2.30;97.50;;;;;;6210999;23;19907;-83
2023/02/08 09:18:41;;;;;;;;;;;2.40;98.10;;;;;;6211600;23;20231;-83
2023/02/08 09:21:10;;;;;;;;;;;2.40;97.00;;;;;;6213864;23;19932;-83
2023/02/08 09:23:36;;;;;;;;;;;2.50;96.60;;;;;;6208149;23;19899;-83
2023/02/08 09:26:03;;;;;;;;;;;2.50;95.10;;;;;;6207004;23;20006;-83
2023/02/08 09:28:28;;;;;;;;;;;2.50;94.70;;;;;;6208251;23;19900;-83
2023/02/08 09:30:54;;;;;;;;;;;2.50;95.50;;;;;;6208459;23;19950;-83
2023/02/08 09:33:20;;;;;;;;;;;2.60;95.60;;;;;;6207047;23;19900;-83
2023/02/08 09:35:45;;;;;;;;;;;2.60;96.30;;;;;;6203678;23;20147;-83
2023/02/08 09:38:11;;;;;;;;;;;2.60;95.90;;;;;;6206633;23;20228;-83
2023/02/08 09:40:41;;;;;;;;;;;2.70;95.70;;;;;;6207664;23;20430;-83
2023/02/08 09:43:10;;;;;;;;;;;2.70;96.10;;;;;;6205708;23;19904;-83
2023/02/08 09:45:43;;;;;;;;;;;2.80;95.50;;;;;;6205002;23;19954;-83
2023/02/08 09:48:09;;;;;;;;;;;2.80;96.20;;;;;;6206640;23;19927;-83
2023/02/08 09:50:38;;;;;;;;;;;2.90;95.80;;;;;;6209496;23;20244;-83
2023/02/08 09:53:26;;;;;;;;;;;2.90;95.80;;;;;;6208999;23;20486;-83
2023/02/08 09:55:54;;;;;;;;;;;3.00;96.10;;;;;;6193152;23;19900;-83
2023/02/08 09:58:19;;;;;;;;;;;3.00;96.40;;;;;;6207265;23;19900;-83
2023/02/08 10:00:46;;;;;;;;;;;3.00;95.70;;;;;;6208414;23;19904;-83
2023/02/08 10:03:30;;;;;;;;;;;3.10;95.90;;;;;;6209710;23;19900;-83
2023/02/08 10:05:56;;;;;;;;;;;3.10;95.10;;;;;;6207635;23;20312;-83
2023/02/08 10:08:21;;;;;;;;;;;3.10;95.40;;;;;;6207490;23;20022;-83
2023/02/08 10:10:54;;;;;;;;;;;3.20;95.30;;;;;;6208253;23;19962;-84
2023/02/08 10:13:22;;;;;;;;;;;3.30;95.10;;;;;;6209357;23;19923;-83
2023/02/08 10:15:51;;;;;;;;;;;3.40;94.70;;;;;;6207863;23;19900;-84
2023/02/08 10:18:24;;;;;;;;;;;3.40;95.30;;;;;;6206866;23;19906;-83
2023/02/08 10:21:02;;;;;;;;;;;3.40;95.40;;;;;;6208447;23;19910;-86
2023/02/08 10:23:31;;;;;;;;;;;3.40;94.90;;;;;;6208668;23;19906;-84
2023/02/08 10:26:08;;;;;;;;;;;3.50;95.30;;;;;;6209114;23;19900;-83
2023/02/08 10:28:43;;;;;;;;;;;3.50;96.10;;;;;;6207798;23;20325;-83
2023/02/08 10:31:09;;;;;;;;;;;3.50;95.30;;;;;;6209548;23;19900;-84
2023/02/08 10:33:52;;;;;;;;;;;3.50;94.40;;;;;;6208359;23;20291;-84
2023/02/08 10:36:19;;;;;;;;;;;3.60;95.20;;;;;;6209043;23;19900;-82
2023/02/08 10:38:47;;;;;;;;;;;3.50;95.10;;;;;;6206721;23;19962;-83
2023/02/08 10:41:20;;;;;;;;;;;3.60;96.90;;;;;;6209317;23;19899;-83
2023/02/08 10:44:00;;;;;;;;;;;3.70;95.10;;;;;;6209687;23;19900;-83
2023/02/08 10:46:25;;;;;;;;;;;3.70;94.50;;;;;;6207737;23;19907;-83
2023/02/08 10:48:58;;;;;;;;;;;3.80;95.10;;;;;;6208341;23;19904;-84
2023/02/08 10:51:25;;;;;;;;;;;3.70;94.50;;;;;;6206871;23;19911;-83
2023/02/08 10:53:50;;;;;;;;;;;3.80;94.10;;;;;;6207946;23;19900;-83
2023/02/08 10:56:28;;;;;;;;;;;3.70;94.00;;;;;;6206781;23;19906;-83
2023/02/08 10:58:54;;;;;;;;;;;3.80;93.80;;;;;;6208682;23;19903;-84
2023/02/08 11:01:20;;;;;;;;;;;3.80;95.20;;;;;;6208793;23;19900;-84
2023/02/08 11:04:02;;;;;;;;;;;4.00;96.10;;;;;;6210948;23;20240;-83
2023/02/08 11:06:28;;;;;;;;;;;4.00;95.20;;;;;;6209446;23;19931;-83
2023/02/08 11:08:55;;;;;;;;;;;4.00;94.80;;;;;;6210520;23;19904;-83
2023/02/08 11:11:20;;;;;;;;;;;4.00;94.60;;;;;;6210105;23;19912;-83
2023/02/08 11:13:50;;;;;;;;;;;4.00;94.30;;;;;;6209927;23;20026;-83
2023/02/08 11:16:23;;;;;;;;;;;4.00;93.60;;;;;;6208253;23;20328;-83
2023/02/08 11:18:50;;;;;;;;;;;4.00;93.00;;;;;;6208256;23;19907;-84
2023/02/08 11:21:24;;;;;;;;;;;4.00;92.80;;;;;;6210763;23;19907;-83
2023/02/08 11:23:51;;;;;;;;;;;4.10;93.40;;;;;;6209804;23;19982;-83
2023/02/08 11:26:17;;;;;;;;;;;4.20;93.60;;;;;;6208610;23;20239;-83
2023/02/08 11:28:43;;;;;;;;;;;4.20;93.90;;;;;;6208735;23;19904;-84
2023/02/08 11:31:18;;;;;;;;;;;4.30;94.50;;;;;;6212374;23;19900;-83
2023/02/08 11:33:57;;;;;;;;;;;4.40;93.60;;;;;;6212644;23;19911;-83
2023/02/08 11:36:23;;;;;;;;;;;4.50;94.10;;;;;;6214423;23;20358;-83
2023/02/08 11:38:49;;;;;;;;;;;4.50;93.00;;;;;;6213141;23;19936;-84
2023/02/08 11:41:17;;;;;;;;;;;4.60;93.10;;;;;;6213961;23;19900;-84
2023/02/08 11:43:48;;;;;;;;;;;4.60;92.80;;;;;;6213696;23;19904;-84
2023/02/08 11:46:20;;;;;;;;;;;4.60;91.80;;;;;;6212837;23;19907;-84
2023/02/08 11:48:50;;;;;;;;;;;4.60;91.10;;;;;;6213101;23;19983;-84
2023/02/08 11:51:24;;;;;;;;;;;4.60;91.40;;;;;;6213800;23;19979;-84
2023/02/08 11:53:49;;;;;;;;;;;4.70;91.30;;;;;;6212226;23;20386;-84
2023/02/08 11:56:17;;;;;;;;;;;4.80;90.70;;;;;;6213284;23;19903;-84
2023/02/08 11:58:56;;;;;;;;;;;4.90;91.60;;;;;;6212004;23;20444;-85
2023/02/08 12:01:24;;;;;;;;;;;5.00;91.60;;;;;;6213694;23;20382;-85
2023/02/08 12:03:50;;;;;;;;;;;5.00;91.20;;;;;;6213231;23;19899;-84
2023/02/08 12:06:21;;;;;;;;;;;5.10;91.30;;;;;;6212768;23;19911;-84
2023/02/08 12:08:47;;;;;;;;;;;5.20;91.50;;;;;;6212517;23;19904;-85
2023/02/08 12:11:15;;;;;;;;;;;5.20;91.00;;;;;;6213138;23;19912;-84
2023/02/08 12:13:44;;;;;;;;;;;5.30;90.80;;;;;;6211205;23;19899;-85
2023/02/08 12:16:19;;;;;;;;;;;5.30;90.60;;;;;;6213561;23;19907;-84
2023/02/08 12:18:47;;;;;;;;;;;5.30;90.00;;;;;;6213512;23;19904;-84
2023/02/08 12:21:19;;;;;;;;;;;5.30;90.20;;;;;;6214277;23;20368;-85
2023/02/08 12:23:50;;;;;;;;;;;5.40;90.30;;;;;;6211110;23;19961;-83
2023/02/08 12:26:30;;;;;;;;;;;5.40;90.00;;;;;;6212516;23;19910;-84
2023/02/08 12:29:21;;;;;;;;;;;5.40;91.20;;;;;;6211226;23;20345;-84
2023/02/08 12:31:46;;;;;;;;;;;5.40;89.00;;;;;;6210919;23;20333;-84
2023/02/08 12:34:30;;;;;;;;;;;5.50;89.60;;;;;;6211362;23;19900;-83
2023/02/08 12:43:19;;;;;;;;;;;5.60;88.30;;;;;;6212045;23;20276;-85
2023/02/08 12:45:48;;;;;;;;;;;5.60;88.10;;;;;;6211335;23;19904;-84
2023/02/08 12:48:28;;;;;;;;;;;5.60;85.30;;;;;;6213483;23;19896;-85
2023/02/08 12:51:20;;;;;;;;;;;5.60;87.30;;;;;;6213237;23;19907;-84
2023/02/08 12:53:48;;;;;;;;;;;5.60;86.10;;;;;;6167270;23;20261;-84
2023/02/08 12:56:16;;;;;;;;;;;5.60;85.20;;;;;;6211276;23;19977;-84
2023/02/08 12:58:41;;;;;;;;;;;5.50;84.30;;;;;;6213581;23;19899;-85
2023/02/08 13:01:09;;;;;;;;;;;5.60;85.30;;;;;;6212363;23;20569;-84
2023/02/08 13:03:47;;;;;;;;;;;5.60;84.90;;;;;;6211574;23;19904;-84
2023/02/08 13:06:22;;;;;;;;;;;5.50;85.70;;;;;;6212901;23;20469;-85
2023/02/08 13:08:56;;;;;;;;;;;5.50;85.10;;;;;;6211623;23;19933;-80
2023/02/08 13:11:43;;;;;;;;;;;5.60;87.00;;;;;;6212610;23;19911;-81
2023/02/08 13:14:12;;;;;;;;;;;5.60;85.60;;;;;;6211620;23;19975;-81
2023/02/08 13:16:45;;;;;;;;;;;5.60;85.70;;;;;;6213062;23;20308;-81
2023/02/08 13:19:29;;;;;;;;;;;5.60;85.30;;;;;;6213544;23;19911;-80
2023/02/08 13:21:54;;;;;;;;;;;5.50;82.10;;;;;;6211543;23;19904;-81
2023/02/08 13:24:32;;;;;;;;;;;5.40;83.00;;;;;;6213275;23;19911;-80
2023/02/08 13:26:58;;;;;;;;;;;5.40;83.50;;;;;;6214519;23;19900;-80
2023/02/08 13:29:24;;;;;;;;;;;5.40;85.40;;;;;;6214257;23;19910;-80
2023/02/08 13:31:55;;;;;;;;;;;5.40;85.60;;;;;;6213701;23;19923;-80
2023/02/08 13:34:28;;;;;;;;;;;5.40;86.10;;;;;;6212871;23;19900;-81
2023/02/08 13:36:56;;;;;;;;;;;5.50;87.00;;;;;;6212830;23;19899;-78
2023/02/08 13:39:29;;;;;;;;;;;5.40;86.80;;;;;;6213948;23;19904;-77
2023/02/08 13:41:55;;;;;;;;;;;5.40;86.50;;;;;;6214276;23;19900;-78
2023/02/08 13:44:26;;;;;;;;;;;5.40;85.10;;;;;;6212098;23;19900;-77
2023/02/08 13:46:51;;;;;;;;;;;5.30;84.50;;;;;;6213810;23;19907;-77
2023/02/08 13:49:35;;;;;;;;;;;5.30;85.60;;;;;;6213877;23;19900;-77
2023/02/08 13:52:01;;;;;;;;;;;5.20;85.00;;;;;;6214034;23;20074;-77
2023/02/08 13:54:26;;;;;;;;;;;5.20;85.80;;;;;;6214227;23;19904;-77
2023/02/08 13:56:52;;;;;;;;;;;5.20;86.80;;;;;;6212453;23;19906;-78
2023/02/08 13:59:24;;;;;;;;;;;5.20;88.20;;;;;;6212551;23;20375;-78
2023/02/08 14:02:09;;;;;;;;;;;5.20;87.00;;;;;;6212203;23;19951;-77
2023/02/08 14:04:36;;;;;;;;;;;5.20;88.10;;;;;;6213955;23;19907;-77
2023/02/08 14:07:05;;;;;;;;;;;5.20;88.60;;;;;;6214263;23;19957;-77
2023/02/08 14:09:37;;;;;;;;;;;5.20;89.20;;;;;;6212182;23;19900;-77
2023/02/08 14:12:05;;;;;;;;;;;5.20;88.30;;;;;;6213748;23;19911;-78
2023/02/08 14:14:34;;;;;;;;;;;5.20;89.40;;;;;;6212651;23;19900;-77
2023/02/08 14:17:02;;;;;;;;;;;5.20;89.60;;;;;;6212399;23;19903;-77
2023/02/08 14:19:29;;;;;;;;;;;5.10;87.90;;;;;;6212357;23;19903;-77
2023/02/08 14:22:02;;;;;;;;;;;5.10;89.10;;;;;;6213857;23;19974;-77
2023/02/08 14:24:33;;;;;;;;;;;5.10;88.70;;;;;;6213876;23;19906;-78
2023/02/08 14:27:04;;;;;;;;;;;5.10;87.50;;;;;;6212304;23;19989;-77
2023/02/08 14:29:31;;;;;;;;;;;5.10;87.60;;;;;;6212296;23;19907;-78
2023/02/08 14:31:58;;;;;;;;;;;5.10;89.30;;;;;;6212088;23;19899;-77
2023/02/08 14:34:34;;;;;;;;;;;5.10;90.20;;;;;;6214113;23;20213;-77
2023/02/08 14:37:00;;;;;;;;;;;5.10;90.20;;;;;;6215000;23;19946;-77
2023/02/08 14:39:28;;;;;;;;;;;5.10;86.50;;;;;;6215712;23;19904;-77
2023/02/08 14:42:07;;;;;;;;;;;5.10;86.60;;;;;;6216061;23;19900;-77
2023/02/08 14:44:46;;;;;;;;;;;5.00;87.20;;;;;;6215895;23;19900;-77